sensor_id;sensor_type;location;lat;lon;timestamp;temperature;humidity
68215;DHT22;55036;52.138;5.236;2023-04-24T00:00:47;11.10;93.60
68215;DHT22;55036;52.138;5.236;2023-04-24T00:03:14;11.20;93.70
68215;DHT22;55036;52.138;5.236;2023-04-24T00:05:41;11.20;93.70
68215;DHT22;55036;52.138;5.236;2023-04-24T00:08:08;11.20;94.10
68215;DHT22;55036;52.138;5.236;2023-04-24T00:10:35;11.20;94.30
68215;DHT22;55036;52.138;5.236;2023-04-24T00:13:01;11.10;94.30
68215;DHT22;55036;52.138;5.236;2023-04-24T00:15:28;11.30;94.10
68215;DHT22;55036;52.138;5.236;2023-04-24T00:17:55;11.30;94.10
68215;DHT22;55036;52.138;5.236;2023-04-24T00:20:22;11.20;93.80
68215;DHT22;55036;52.138;5.236;2023-04-24T00:22:49;11.10;94.10
68215;DHT22;55036;52.138;5.236;2023-04-24T00:25:15;11.10;93.90
68215;DHT22;55036;52.138;5.236;2023-04-24T00:27:42;11.10;93.70
68215;DHT22;55036;52.138;5.236;2023-04-24T00:30:09;11.00;94.20
68215;DHT22;55036;52.138;5.236;2023-04-24T00:32:36;11.10;94.00
68215;DHT22;55036;52.138;5.236;2023-04-24T00:35:03;11.10;93.90
68215;DHT22;55036;52.138;5.236;2023-04-24T00:37:30;11.10;93.70
68215;DHT22;55036;52.138;5.236;2023-04-24T00:39:57;11.00;93.60
68215;DHT22;55036;52.138;5.236;2023-04-24T00:42:23;11.10;93.70
68215;DHT22;55036;52.138;5.236;2023-04-24T00:44:51;11.10;93.10
68215;DHT22;55036;52.138;5.236;2023-04-24T00:47:19;11.10;93.70
68215;DHT22;55036;52.138;5.236;2023-04-24T00:49:46;11.00;93.80
68215;DHT22;55036;52.138;5.236;2023-04-24T00:52:13;11.10;93.80
68215;DHT22;55036;52.138;5.236;2023-04-24T00:54:44;11.10;93.40
68215;DHT22;55036;52.138;5.236;2023-04-24T00:57:14;11.10;93.90
68215;DHT22;55036;52.138;5.236;2023-04-24T00:59:42;11.20;93.70
68215;DHT22;55036;52.138;5.236;2023-04-24T01:02:10;11.20;93.60
68215;DHT22;55036;52.138;5.236;2023-04-24T01:04:39;11.20;93.40
68215;DHT22;55036;52.138;5.236;2023-04-24T01:07:07;11.30;93.70
68215;DHT22;55036;52.138;5.236;2023-04-24T01:09:40;11.30;93.10
68215;DHT22;55036;52.138;5.236;2023-04-24T01:12:10;11.20;93.40
68215;DHT22;55036;52.138;5.236;2023-04-24T01:14:37;11.10;93.80
68215;DHT22;55036;52.138;5.236;2023-04-24T01:17:04;11.20;93.50
68215;DHT22;55036;52.138;5.236;2023-04-24T01:19:32;11.20;93.80
68215;DHT22;55036;52.138;5.236;2023-04-24T01:22:02;11.20;93.70
68215;DHT22;55036;52.138;5.236;2023-04-24T01:24:29;11.30;93.70
68215;DHT22;55036;52.138;5.236;2023-04-24T01:26:56;11.30;94.10
68215;DHT22;55036;52.138;5.236;2023-04-24T01:29:23;11.20;94.00
68215;DHT22;55036;52.138;5.236;2023-04-24T01:31:50;11.20;93.70
68215;DHT22;55036;52.138;5.236;2023-04-24T01:34:17;11.30;93.70
68215;DHT22;55036;52.138;5.236;2023-04-24T01:36:45;11.30;93.10
68215;DHT22;55036;52.138;5.236;2023-04-24T01:39:13;11.40;93.40
68215;DHT22;55036;52.138;5.236;2023-04-24T01:41:39;11.30;93.50
68215;DHT22;55036;52.138;5.236;2023-04-24T01:44:06;11.30;93.50
68215;DHT22;55036;52.138;5.236;2023-04-24T01:46:33;11.30;93.70
68215;DHT22;55036;52.138;5.236;2023-04-24T01:49:02;11.30;93.60
68215;DHT22;55036;52.138;5.236;2023-04-24T01:51:29;11.30;93.80
68215;DHT22;55036;52.138;5.236;2023-04-24T01:53:56;11.40;93.40
68215;DHT22;55036;52.138;5.236;2023-04-24T01:56:23;11.50;93.40
68215;DHT22;55036;52.138;5.236;2023-04-24T01:58:52;11.40;93.20
68215;DHT22;55036;52.138;5.236;2023-04-24T02:01:19;11.40;93.30
68215;DHT22;55036;52.138;5.236;2023-04-24T02:03:46;11.40;93.50
68215;DHT22;55036;52.138;5.236;2023-04-24T02:06:13;11.40;93.50
68215;DHT22;55036;52.138;5.236;2023-04-24T02:08:40;11.40;93.40
68215;DHT22;55036;52.138;5.236;2023-04-24T02:11:09;11.50;93.30
68215;DHT22;55036;52.138;5.236;2023-04-24T02:13:36;11.50;93.10
68215;DHT22;55036;52.138;5.236;2023-04-24T02:16:02;11.60;93.20
68215;DHT22;55036;52.138;5.236;2023-04-24T02:18:29;11.50;93.10
68215;DHT22;55036;52.138;5.236;2023-04-24T02:20:56;11.60;93.10
68215;DHT22;55036;52.138;5.236;2023-04-24T02:23:23;11.60;92.80
68215;DHT22;55036;52.138;5.236;2023-04-24T02:25:49;11.70;92.80
68215;DHT22;55036;52.138;5.236;2023-04-24T02:28:16;11.70;92.40
68215;DHT22;55036;52.138;5.236;2023-04-24T02:30:43;11.70;92.50
68215;DHT22;55036;52.138;5.236;2023-04-24T02:33:10;11.60;92.60
68215;DHT22;55036;52.138;5.236;2023-04-24T02:35:37;11.60;92.70
68215;DHT22;55036;52.138;5.236;2023-04-24T02:38:04;11.70;92.30
68215;DHT22;55036;52.138;5.236;2023-04-24T02:40:32;11.70;92.80
68215;DHT22;55036;52.138;5.236;2023-04-24T02:42:58;11.70;92.20
68215;DHT22;55036;52.138;5.236;2023-04-24T02:45:25;11.60;92.80
68215;DHT22;55036;52.138;5.236;2023-04-24T02:47:52;11.60;92.40
68215;DHT22;55036;52.138;5.236;2023-04-24T02:50:18;11.50;92.60
68215;DHT22;55036;52.138;5.236;2023-04-24T02:52:45;11.60;92.40
68215;DHT22;55036;52.138;5.236;2023-04-24T02:55:12;11.70;92.10
68215;DHT22;55036;52.138;5.236;2023-04-24T02:57:39;11.70;92.20
68215;DHT22;55036;52.138;5.236;2023-04-24T03:00:07;11.70;92.10
68215;DHT22;55036;52.138;5.236;2023-04-24T03:02:35;11.70;91.90
68215;DHT22;55036;52.138;5.236;2023-04-24T03:05:02;11.60;91.80
68215;DHT22;55036;52.138;5.236;2023-04-24T03:07:30;11.60;91.70
68215;DHT22;55036;52.138;5.236;2023-04-24T03:09:58;11.60;91.80
68215;DHT22;55036;52.138;5.236;2023-04-24T03:12:25;11.50;91.60
68215;DHT22;55036;52.138;5.236;2023-04-24T03:14:51;11.40;91.70
68215;DHT22;55036;52.138;5.236;2023-04-24T03:17:18;11.40;91.90
68215;DHT22;55036;52.138;5.236;2023-04-24T03:19:45;11.40;91.90
68215;DHT22;55036;52.138;5.236;2023-04-24T03:22:12;11.40;91.70
68215;DHT22;55036;52.138;5.236;2023-04-24T03:24:38;11.40;91.80
68215;DHT22;55036;52.138;5.236;2023-04-24T03:27:05;11.50;91.70
68215;DHT22;55036;52.138;5.236;2023-04-24T03:29:32;11.50;91.70
68215;DHT22;55036;52.138;5.236;2023-04-24T03:31:58;11.60;91.50
68215;DHT22;55036;52.138;5.236;2023-04-24T03:34:25;11.60;91.40
68215;DHT22;55036;52.138;5.236;2023-04-24T03:36:52;11.60;91.50
68215;DHT22;55036;52.138;5.236;2023-04-24T03:39:19;11.60;91.30
68215;DHT22;55036;52.138;5.236;2023-04-24T03:41:45;11.60;90.80
68215;DHT22;55036;52.138;5.236;2023-04-24T03:44:12;11.50;91.50
68215;DHT22;55036;52.138;5.236;2023-04-24T03:46:39;11.50;91.40
68215;DHT22;55036;52.138;5.236;2023-04-24T03:49:05;11.50;91.20
68215;DHT22;55036;52.138;5.236;2023-04-24T03:51:32;11.60;91.20
68215;DHT22;55036;52.138;5.236;2023-04-24T03:53:59;11.60;91.10
68215;DHT22;55036;52.138;5.236;2023-04-24T03:56:26;11.60;91.20
68215;DHT22;55036;52.138;5.236;2023-04-24T03:58:52;11.60;91.10
68215;DHT22;55036;52.138;5.236;2023-04-24T04:01:19;11.60;91.00
68215;DHT22;55036;52.138;5.236;2023-04-24T04:03:47;11.60;90.90
68215;DHT22;55036;52.138;5.236;2023-04-24T04:06:14;11.60;90.80
68215;DHT22;55036;52.138;5.236;2023-04-24T04:08:41;11.60;90.80
68215;DHT22;55036;52.138;5.236;2023-04-24T04:11:07;11.60;90.90
68215;DHT22;55036;52.138;5.236;2023-04-24T04:13:34;11.60;90.80
68215;DHT22;55036;52.138;5.236;2023-04-24T04:16:01;11.60;90.70
68215;DHT22;55036;52.138;5.236;2023-04-24T04:18:27;11.60;90.60
68215;DHT22;55036;52.138;5.236;2023-04-24T04:20:54;11.60;90.70
68215;DHT22;55036;52.138;5.236;2023-04-24T04:23:21;11.60;90.80
68215;DHT22;55036;52.138;5.236;2023-04-24T04:25:47;11.60;90.80
68215;DHT22;55036;52.138;5.236;2023-04-24T04:28:14;11.70;90.80
68215;DHT22;55036;52.138;5.236;2023-04-24T04:30:41;11.70;90.80
68215;DHT22;55036;52.138;5.236;2023-04-24T04:33:08;11.70;90.70
68215;DHT22;55036;52.138;5.236;2023-04-24T04:35:37;11.60;90.60
68215;DHT22;55036;52.138;5.236;2023-04-24T04:38:03;11.60;90.60
68215;DHT22;55036;52.138;5.236;2023-04-24T04:40:31;11.60;90.70
68215;DHT22;55036;52.138;5.236;2023-04-24T04:42:58;11.60;90.70
68215;DHT22;55036;52.138;5.236;2023-04-24T04:45:24;11.60;90.60
68215;DHT22;55036;52.138;5.236;2023-04-24T04:47:54;11.60;90.60
68215;DHT22;55036;52.138;5.236;2023-04-24T04:50:21;11.60;90.50
68215;DHT22;55036;52.138;5.236;2023-04-24T04:52:49;11.50;90.80
68215;DHT22;55036;52.138;5.236;2023-04-24T04:55:16;11.50;90.80
68215;DHT22;55036;52.138;5.236;2023-04-24T04:57:43;11.60;91.20
68215;DHT22;55036;52.138;5.236;2023-04-24T05:00:10;11.60;90.80
68215;DHT22;55036;52.138;5.236;2023-04-24T05:02:38;11.70;90.70
68215;DHT22;55036;52.138;5.236;2023-04-24T05:05:06;11.70;90.80
68215;DHT22;55036;52.138;5.236;2023-04-24T05:07:34;11.70;90.90
68215;DHT22;55036;52.138;5.236;2023-04-24T05:10:01;11.70;90.90
68215;DHT22;55036;52.138;5.236;2023-04-24T05:12:27;11.70;90.90
68215;DHT22;55036;52.138;5.236;2023-04-24T05:14:54;11.70;90.90
68215;DHT22;55036;52.138;5.236;2023-04-24T05:17:21;11.80;90.80
68215;DHT22;55036;52.138;5.236;2023-04-24T05:19:47;11.80;90.70
68215;DHT22;55036;52.138;5.236;2023-04-24T05:22:14;11.80;90.90
68215;DHT22;55036;52.138;5.236;2023-04-24T05:24:41;11.80;90.90
68215;DHT22;55036;52.138;5.236;2023-04-24T05:27:08;11.80;90.90
68215;DHT22;55036;52.138;5.236;2023-04-24T05:29:34;11.80;90.80
68215;DHT22;55036;52.138;5.236;2023-04-24T05:32:01;11.70;90.80
68215;DHT22;55036;52.138;5.236;2023-04-24T05:34:28;11.70;90.70
68215;DHT22;55036;52.138;5.236;2023-04-24T05:36:55;11.60;90.50
68215;DHT22;55036;52.138;5.236;2023-04-24T05:39:21;11.40;91.10
68215;DHT22;55036;52.138;5.236;2023-04-24T05:41:48;11.40;90.90
68215;DHT22;55036;52.138;5.236;2023-04-24T05:44:15;11.40;90.90
68215;DHT22;55036;52.138;5.236;2023-04-24T05:46:41;11.30;91.00
68215;DHT22;55036;52.138;5.236;2023-04-24T05:49:08;11.30;91.10
68215;DHT22;55036;52.138;5.236;2023-04-24T05:51:35;11.40;91.00
68215;DHT22;55036;52.138;5.236;2023-04-24T05:54:02;11.40;90.90
68215;DHT22;55036;52.138;5.236;2023-04-24T05:56:29;11.50;90.80
68215;DHT22;55036;52.138;5.236;2023-04-24T05:58:57;11.50;90.70
68215;DHT22;55036;52.138;5.236;2023-04-24T06:01:23;11.40;90.10
68215;DHT22;55036;52.138;5.236;2023-04-24T06:03:51;11.30;90.50
68215;DHT22;55036;52.138;5.236;2023-04-24T06:06:19;11.40;90.60
68215;DHT22;55036;52.138;5.236;2023-04-24T06:08:46;11.30;90.40
68215;DHT22;55036;52.138;5.236;2023-04-24T06:11:13;11.30;90.50
68215;DHT22;55036;52.138;5.236;2023-04-24T06:13:39;11.30;90.20
68215;DHT22;55036;52.138;5.236;2023-04-24T06:16:06;11.20;90.50
68215;DHT22;55036;52.138;5.236;2023-04-24T06:18:32;11.30;90.60
68215;DHT22;55036;52.138;5.236;2023-04-24T06:20:59;11.20;90.90
68215;DHT22;55036;52.138;5.236;2023-04-24T06:23:26;11.20;91.10
68215;DHT22;55036;52.138;5.236;2023-04-24T06:25:52;11.00;91.80
68215;DHT22;55036;52.138;5.236;2023-04-24T06:28:19;10.90;92.50
68215;DHT22;55036;52.138;5.236;2023-04-24T06:30:46;10.80;92.90
68215;DHT22;55036;52.138;5.236;2023-04-24T06:33:12;10.60;93.70
68215;DHT22;55036;52.138;5.236;2023-04-24T06:35:44;10.60;93.60
68215;DHT22;55036;52.138;5.236;2023-04-24T06:38:11;10.50;93.60
68215;DHT22;55036;52.138;5.236;2023-04-24T06:40:37;10.50;93.70
68215;DHT22;55036;52.138;5.236;2023-04-24T06:43:05;10.50;93.50
68215;DHT22;55036;52.138;5.236;2023-04-24T06:45:32;10.50;93.40
68215;DHT22;55036;52.138;5.236;2023-04-24T06:47:59;10.50;93.50
68215;DHT22;55036;52.138;5.236;2023-04-24T06:50:26;10.60;93.50
68215;DHT22;55036;52.138;5.236;2023-04-24T06:52:53;10.80;93.40
68215;DHT22;55036;52.138;5.236;2023-04-24T06:55:19;10.80;93.20
68215;DHT22;55036;52.138;5.236;2023-04-24T06:57:46;10.80;92.60
68215;DHT22;55036;52.138;5.236;2023-04-24T07:00:13;10.90;92.80
68215;DHT22;55036;52.138;5.236;2023-04-24T07:02:40;10.90;91.80
68215;DHT22;55036;52.138;5.236;2023-04-24T07:05:07;10.90;92.10
68215;DHT22;55036;52.138;5.236;2023-04-24T07:07:35;11.00;92.30
68215;DHT22;55036;52.138;5.236;2023-04-24T07:10:04;11.10;91.70
68215;DHT22;55036;52.138;5.236;2023-04-24T07:12:31;11.10;91.60
68215;DHT22;55036;52.138;5.236;2023-04-24T07:15:00;11.20;90.80
68215;DHT22;55036;52.138;5.236;2023-04-24T07:17:27;11.20;91.20
68215;DHT22;55036;52.138;5.236;2023-04-24T07:19:54;11.20;91.20
68215;DHT22;55036;52.138;5.236;2023-04-24T07:22:20;11.20;91.40
68215;DHT22;55036;52.138;5.236;2023-04-24T07:24:47;11.40;91.00
68215;DHT22;55036;52.138;5.236;2023-04-24T07:27:14;11.30;91.00
68215;DHT22;55036;52.138;5.236;2023-04-24T07:29:42;11.30;90.90
68215;DHT22;55036;52.138;5.236;2023-04-24T07:32:08;11.40;90.80
68215;DHT22;55036;52.138;5.236;2023-04-24T07:34:35;11.50;90.70
68215;DHT22;55036;52.138;5.236;2023-04-24T07:37:02;11.60;90.50
68215;DHT22;55036;52.138;5.236;2023-04-24T07:39:29;11.60;90.40
68215;DHT22;55036;52.138;5.236;2023-04-24T07:41:56;11.60;90.40
68215;DHT22;55036;52.138;5.236;2023-04-24T07:44:25;11.70;90.40
68215;DHT22;55036;52.138;5.236;2023-04-24T07:46:51;11.60;89.20
68215;DHT22;55036;52.138;5.236;2023-04-24T07:49:18;11.60;89.20
68215;DHT22;55036;52.138;5.236;2023-04-24T07:51:45;11.60;90.00
68215;DHT22;55036;52.138;5.236;2023-04-24T07:54:12;11.70;89.90
68215;DHT22;55036;52.138;5.236;2023-04-24T07:56:40;11.70;89.80
68215;DHT22;55036;52.138;5.236;2023-04-24T07:59:08;11.70;88.80
68215;DHT22;55036;52.138;5.236;2023-04-24T08:01:37;11.60;87.90
68215;DHT22;55036;52.138;5.236;2023-04-24T08:04:04;11.50;87.40
68215;DHT22;55036;52.138;5.236;2023-04-24T08:06:31;11.50;88.30
68215;DHT22;55036;52.138;5.236;2023-04-24T08:08:59;11.40;88.70
68215;DHT22;55036;52.138;5.236;2023-04-24T08:11:26;11.10;89.20
68215;DHT22;55036;52.138;5.236;2023-04-24T08:13:53;11.00;89.50
68215;DHT22;55036;52.138;5.236;2023-04-24T08:16:21;10.90;90.20
68215;DHT22;55036;52.138;5.236;2023-04-24T08:18:47;11.00;90.10
68215;DHT22;55036;52.138;5.236;2023-04-24T08:21:14;11.00;90.30
68215;DHT22;55036;52.138;5.236;2023-04-24T08:23:44;11.10;90.30
68215;DHT22;55036;52.138;5.236;2023-04-24T08:26:11;11.10;90.20
68215;DHT22;55036;52.138;5.236;2023-04-24T08:28:38;11.20;90.60
68215;DHT22;55036;52.138;5.236;2023-04-24T08:31:05;11.30;90.00
68215;DHT22;55036;52.138;5.236;2023-04-24T08:33:32;11.30;89.80
68215;DHT22;55036;52.138;5.236;2023-04-24T08:36:05;11.20;89.00
68215;DHT22;55036;52.138;5.236;2023-04-24T08:38:32;11.20;89.70
68215;DHT22;55036;52.138;5.236;2023-04-24T08:41:01;11.20;87.10
68215;DHT22;55036;52.138;5.236;2023-04-24T08:43:27;11.10;85.60
68215;DHT22;55036;52.138;5.236;2023-04-24T08:45:57;11.20;87.90
68215;DHT22;55036;52.138;5.236;2023-04-24T08:48:24;11.30;85.90
68215;DHT22;55036;52.138;5.236;2023-04-24T08:50:57;11.30;84.80
68215;DHT22;55036;52.138;5.236;2023-04-24T08:53:25;11.10;84.30
68215;DHT22;55036;52.138;5.236;2023-04-24T08:55:54;11.00;85.20
68215;DHT22;55036;52.138;5.236;2023-04-24T08:58:22;11.00;85.50
68215;DHT22;55036;52.138;5.236;2023-04-24T09:00:53;11.00;85.00
68215;DHT22;55036;52.138;5.236;2023-04-24T09:03:21;11.00;85.10
68215;DHT22;55036;52.138;5.236;2023-04-24T09:05:49;11.10;87.30
68215;DHT22;55036;52.138;5.236;2023-04-24T09:08:19;11.50;87.20
68215;DHT22;55036;52.138;5.236;2023-04-24T09:10:46;11.60;86.90
68215;DHT22;55036;52.138;5.236;2023-04-24T09:13:16;11.70;85.40
68215;DHT22;55036;52.138;5.236;2023-04-24T09:15:44;11.70;85.40
68215;DHT22;55036;52.138;5.236;2023-04-24T09:18:11;11.70;84.30
68215;DHT22;55036;52.138;5.236;2023-04-24T09:21:03;11.60;83.10
68215;DHT22;55036;52.138;5.236;2023-04-24T09:23:31;11.70;84.00
68215;DHT22;55036;52.138;5.236;2023-04-24T09:26:00;11.90;84.50
68215;DHT22;55036;52.138;5.236;2023-04-24T09:28:35;12.10;82.10
68215;DHT22;55036;52.138;5.236;2023-04-24T09:31:22;12.10;83.60
68215;DHT22;55036;52.138;5.236;2023-04-24T09:34:01;12.20;80.40
68215;DHT22;55036;52.138;5.236;2023-04-24T09:36:37;12.10;81.30
68215;DHT22;55036;52.138;5.236;2023-04-24T09:39:12;11.90;79.50
68215;DHT22;55036;52.138;5.236;2023-04-24T09:41:52;11.80;79.80
68215;DHT22;55036;52.138;5.236;2023-04-24T09:44:21;11.60;80.20
68215;DHT22;55036;52.138;5.236;2023-04-24T09:46:56;11.60;77.80
68215;DHT22;55036;52.138;5.236;2023-04-24T09:49:25;11.50;80.00
68215;DHT22;55036;52.138;5.236;2023-04-24T09:52:03;11.60;78.00
68215;DHT22;55036;52.138;5.236;2023-04-24T09:54:30;11.60;80.30
68215;DHT22;55036;52.138;5.236;2023-04-24T09:56:58;11.80;79.80
68215;DHT22;55036;52.138;5.236;2023-04-24T09:59:26;11.80;79.00
68215;DHT22;55036;52.138;5.236;2023-04-24T10:01:53;11.90;79.20
68215;DHT22;55036;52.138;5.236;2023-04-24T10:04:21;12.00;79.10
68215;DHT22;55036;52.138;5.236;2023-04-24T10:06:50;12.20;79.60
68215;DHT22;55036;52.138;5.236;2023-04-24T10:09:19;12.30;78.10
68215;DHT22;55036;52.138;5.236;2023-04-24T10:11:48;12.30;77.00
68215;DHT22;55036;52.138;5.236;2023-04-24T10:14:17;12.30;78.30
68215;DHT22;55036;52.138;5.236;2023-04-24T10:16:45;12.30;78.30
68215;DHT22;55036;52.138;5.236;2023-04-24T10:19:15;12.20;76.50
68215;DHT22;55036;52.138;5.236;2023-04-24T10:21:44;12.20;78.30
68215;DHT22;55036;52.138;5.236;2023-04-24T10:24:17;12.20;77.00
68215;DHT22;55036;52.138;5.236;2023-04-24T10:26:45;12.40;78.30
68215;DHT22;55036;52.138;5.236;2023-04-24T10:29:13;12.50;76.90
68215;DHT22;55036;52.138;5.236;2023-04-24T10:31:41;12.60;77.10
68215;DHT22;55036;52.138;5.236;2023-04-24T10:34:12;12.80;76.40
68215;DHT22;55036;52.138;5.236;2023-04-24T10:36:43;12.80;75.10
68215;DHT22;55036;52.138;5.236;2023-04-24T10:39:13;12.90;75.60
68215;DHT22;55036;52.138;5.236;2023-04-24T10:41:41;12.80;72.70
68215;DHT22;55036;52.138;5.236;2023-04-24T10:44:13;12.60;75.10
68215;DHT22;55036;52.138;5.236;2023-04-24T10:46:45;12.60;71.90
68215;DHT22;55036;52.138;5.236;2023-04-24T10:49:12;12.50;75.20
68215;DHT22;55036;52.138;5.236;2023-04-24T10:51:51;12.50;74.30
68215;DHT22;55036;52.138;5.236;2023-04-24T10:56:53;12.40;75.10
68215;DHT22;55036;52.138;5.236;2023-04-24T10:59:27;12.50;74.50
68215;DHT22;55036;52.138;5.236;2023-04-24T11:02:01;12.40;74.00
68215;DHT22;55036;52.138;5.236;2023-04-24T11:04:32;12.30;74.50
68215;DHT22;55036;52.138;5.236;2023-04-24T11:06:59;12.20;73.90
68215;DHT22;55036;52.138;5.236;2023-04-24T11:09:27;11.90;75.30
68215;DHT22;55036;52.138;5.236;2023-04-24T11:12:07;11.80;76.20
68215;DHT22;55036;52.138;5.236;2023-04-24T11:15:00;11.70;77.20
68215;DHT22;55036;52.138;5.236;2023-04-24T11:17:38;11.70;77.90
68215;DHT22;55036;52.138;5.236;2023-04-24T11:20:17;11.80;79.00
68215;DHT22;55036;52.138;5.236;2023-04-24T11:22:54;12.10;80.00
68215;DHT22;55036;52.138;5.236;2023-04-24T11:25:22;12.40;79.60
68215;DHT22;55036;52.138;5.236;2023-04-24T11:27:49;12.80;80.20
68215;DHT22;55036;52.138;5.236;2023-04-24T11:30:18;13.10;79.30
68215;DHT22;55036;52.138;5.236;2023-04-24T11:32:48;13.10;76.40
68215;DHT22;55036;52.138;5.236;2023-04-24T11:37:49;12.80;73.00
68215;DHT22;55036;52.138;5.236;2023-04-24T11:40:21;12.70;76.40
68215;DHT22;55036;52.138;5.236;2023-04-24T11:42:53;13.10;76.40
68215;DHT22;55036;52.138;5.236;2023-04-24T11:45:24;13.10;72.70
68215;DHT22;55036;52.138;5.236;2023-04-24T11:47:52;13.00;73.40
68215;DHT22;55036;52.138;5.236;2023-04-24T11:50:21;12.80;72.60
68215;DHT22;55036;52.138;5.236;2023-04-24T11:52:49;12.70;73.00
68215;DHT22;55036;52.138;5.236;2023-04-24T11:57:46;12.90;73.20
68215;DHT22;55036;52.138;5.236;2023-04-24T12:00:21;12.80;71.80
68215;DHT22;55036;52.138;5.236;2023-04-24T12:02:48;12.60;72.00
68215;DHT22;55036;52.138;5.236;2023-04-24T12:05:20;12.50;71.50
68215;DHT22;55036;52.138;5.236;2023-04-24T12:07:48;12.50;73.30
68215;DHT22;55036;52.138;5.236;2023-04-24T12:10:20;12.50;73.20
68215;DHT22;55036;52.138;5.236;2023-04-24T12:12:50;12.50;74.20
68215;DHT22;55036;52.138;5.236;2023-04-24T12:15:19;12.60;74.00
68215;DHT22;55036;52.138;5.236;2023-04-24T12:17:47;12.50;70.80
68215;DHT22;55036;52.138;5.236;2023-04-24T12:20:14;12.60;72.60
68215;DHT22;55036;52.138;5.236;2023-04-24T12:22:50;12.90;73.40
68215;DHT22;55036;52.138;5.236;2023-04-24T12:25:18;13.00;70.00
68215;DHT22;55036;52.138;5.236;2023-04-24T12:27:46;13.10;67.70
68215;DHT22;55036;52.138;5.236;2023-04-24T12:30:15;13.10;70.40
68215;DHT22;55036;52.138;5.236;2023-04-24T12:32:46;13.00;70.10
68215;DHT22;55036;52.138;5.236;2023-04-24T12:35:21;12.80;68.00
68215;DHT22;55036;52.138;5.236;2023-04-24T12:37:48;12.50;68.00
68215;DHT22;55036;52.138;5.236;2023-04-24T12:40:16;12.30;69.30
68215;DHT22;55036;52.138;5.236;2023-04-24T12:42:48;12.30;70.30
68215;DHT22;55036;52.138;5.236;2023-04-24T12:45:16;12.30;70.80
68215;DHT22;55036;52.138;5.236;2023-04-24T12:47:44;12.30;70.50
68215;DHT22;55036;52.138;5.236;2023-04-24T12:50:14;12.20;70.30
68215;DHT22;55036;52.138;5.236;2023-04-24T12:52:42;12.00;70.50
68215;DHT22;55036;52.138;5.236;2023-04-24T12:55:09;11.80;71.00
68215;DHT22;55036;52.138;5.236;2023-04-24T12:57:38;11.70;70.90
68215;DHT22;55036;52.138;5.236;2023-04-24T13:00:06;11.50;71.50
68215;DHT22;55036;52.138;5.236;2023-04-24T13:02:34;11.70;71.90
68215;DHT22;55036;52.138;5.236;2023-04-24T13:05:01;11.80;71.80
68215;DHT22;55036;52.138;5.236;2023-04-24T13:07:28;11.90;71.80
68215;DHT22;55036;52.138;5.236;2023-04-24T13:09:56;12.00;72.00
68215;DHT22;55036;52.138;5.236;2023-04-24T13:12:24;12.20;71.80
68215;DHT22;55036;52.138;5.236;2023-04-24T13:14:52;12.20;70.90
68215;DHT22;55036;52.138;5.236;2023-04-24T13:17:19;12.40;72.10
68215;DHT22;55036;52.138;5.236;2023-04-24T13:19:46;12.60;69.90
68215;DHT22;55036;52.138;5.236;2023-04-24T13:22:13;12.70;70.50
68215;DHT22;55036;52.138;5.236;2023-04-24T13:24:40;12.60;67.10
68215;DHT22;55036;52.138;5.236;2023-04-24T13:27:08;12.50;68.60
68215;DHT22;55036;52.138;5.236;2023-04-24T13:29:36;12.40;69.60
68215;DHT22;55036;52.138;5.236;2023-04-24T13:32:03;12.50;69.50
68215;DHT22;55036;52.138;5.236;2023-04-24T13:34:30;12.60;68.20
68215;DHT22;55036;52.138;5.236;2023-04-24T13:36:57;12.50;68.30
68215;DHT22;55036;52.138;5.236;2023-04-24T13:39:25;12.50;68.80
68215;DHT22;55036;52.138;5.236;2023-04-24T13:41:53;12.40;67.50
68215;DHT22;55036;52.138;5.236;2023-04-24T13:44:21;12.30;67.00
68215;DHT22;55036;52.138;5.236;2023-04-24T13:46:50;12.20;65.90
68215;DHT22;55036;52.138;5.236;2023-04-24T13:49:18;12.30;68.20
68215;DHT22;55036;52.138;5.236;2023-04-24T13:51:45;12.50;66.70
68215;DHT22;55036;52.138;5.236;2023-04-24T13:54:12;12.70;64.00
68215;DHT22;55036;52.138;5.236;2023-04-24T13:56:40;12.80;64.60
68215;DHT22;55036;52.138;5.236;2023-04-24T13:59:07;12.90;66.40
68215;DHT22;55036;52.138;5.236;2023-04-24T14:01:34;13.10;66.70
68215;DHT22;55036;52.138;5.236;2023-04-24T14:04:01;13.10;66.60
68215;DHT22;55036;52.138;5.236;2023-04-24T14:06:28;13.20;65.30
68215;DHT22;55036;52.138;5.236;2023-04-24T14:08:54;13.20;65.30
68215;DHT22;55036;52.138;5.236;2023-04-24T14:11:21;13.10;65.60
68215;DHT22;55036;52.138;5.236;2023-04-24T14:13:49;13.20;65.40
68215;DHT22;55036;52.138;5.236;2023-04-24T14:16:16;13.20;64.30
68215;DHT22;55036;52.138;5.236;2023-04-24T14:18:43;13.10;64.30
68215;DHT22;55036;52.138;5.236;2023-04-24T14:21:09;13.00;64.90
68215;DHT22;55036;52.138;5.236;2023-04-24T14:23:36;12.90;65.00
68215;DHT22;55036;52.138;5.236;2023-04-24T14:26:03;12.70;66.00
68215;DHT22;55036;52.138;5.236;2023-04-24T14:28:29;12.50;65.10
68215;DHT22;55036;52.138;5.236;2023-04-24T14:30:56;12.40;64.30
68215;DHT22;55036;52.138;5.236;2023-04-24T14:33:23;12.50;66.10
68215;DHT22;55036;52.138;5.236;2023-04-24T14:35:49;12.70;64.50
68215;DHT22;55036;52.138;5.236;2023-04-24T14:38:16;12.70;63.20
68215;DHT22;55036;52.138;5.236;2023-04-24T14:40:43;12.90;64.70
68215;DHT22;55036;52.138;5.236;2023-04-24T14:43:30;13.10;63.50
68215;DHT22;55036;52.138;5.236;2023-04-24T14:45:56;13.50;63.80
68215;DHT22;55036;52.138;5.236;2023-04-24T14:48:23;13.60;64.60
68215;DHT22;55036;52.138;5.236;2023-04-24T14:50:50;13.90;62.70
68215;DHT22;55036;52.138;5.236;2023-04-24T14:53:17;14.10;62.80
68215;DHT22;55036;52.138;5.236;2023-04-24T14:55:44;14.00;62.20
68215;DHT22;55036;52.138;5.236;2023-04-24T14:58:11;13.70;61.60
68215;DHT22;55036;52.138;5.236;2023-04-24T15:00:38;13.50;62.00
68215;DHT22;55036;52.138;5.236;2023-04-24T15:03:04;13.10;64.70
68215;DHT22;55036;52.138;5.236;2023-04-24T15:05:31;12.50;68.20
68215;DHT22;55036;52.138;5.236;2023-04-24T15:07:59;12.30;67.70
68215;DHT22;55036;52.138;5.236;2023-04-24T15:10:25;12.20;69.40
68215;DHT22;55036;52.138;5.236;2023-04-24T15:12:52;12.00;70.40
68215;DHT22;55036;52.138;5.236;2023-04-24T15:15:19;11.90;71.00
68215;DHT22;55036;52.138;5.236;2023-04-24T15:17:46;11.90;71.50
68215;DHT22;55036;52.138;5.236;2023-04-24T15:20:12;11.80;71.00
68215;DHT22;55036;52.138;5.236;2023-04-24T15:22:39;11.70;72.20
68215;DHT22;55036;52.138;5.236;2023-04-24T15:25:06;11.60;71.40
68215;DHT22;55036;52.138;5.236;2023-04-24T15:27:59;11.60;71.30
68215;DHT22;55036;52.138;5.236;2023-04-24T15:30:27;11.80;71.80
68215;DHT22;55036;52.138;5.236;2023-04-24T15:32:54;12.00;69.90
68215;DHT22;55036;52.138;5.236;2023-04-24T15:35:21;12.30;69.60
68215;DHT22;55036;52.138;5.236;2023-04-24T15:37:48;12.40;68.70
68215;DHT22;55036;52.138;5.236;2023-04-24T15:40:14;12.50;68.30
68215;DHT22;55036;52.138;5.236;2023-04-24T15:42:42;12.50;67.90